createdAt,value
2023-06-16T00:00:49.611Z,73.18
2023-06-16T00:03:18.643Z,72.92
2023-06-16T00:05:47.471Z,72.94
2023-06-16T00:08:17.829Z,72.75
2023-06-16T00:10:46.169Z,73.60
2023-06-16T00:13:14.440Z,73.74
2023-06-16T00:15:42.700Z,73.98
2023-06-16T00:18:11.350Z,74.20
2023-06-16T00:20:39.641Z,73.81
2023-06-16T00:23:09.702Z,73.35
2023-06-16T00:25:39.502Z,73.52
2023-06-16T00:28:07.763Z,73.22
2023-06-16T00:30:35.976Z,73.48
2023-06-16T00:33:04.451Z,73.86
2023-06-16T00:35:33.198Z,73.99
2023-06-16T00:38:01.459Z,73.91
2023-06-16T00:40:30.123Z,74.57
2023-06-16T00:43:03.031Z,74.76
2023-06-16T00:45:31.555Z,74.74
2023-06-16T00:48:01.611Z,75.38
2023-06-16T00:50:30.278Z,75.75
2023-06-16T00:52:59.369Z,76.31
2023-06-16T00:55:27.849Z,76.78
2023-06-16T00:57:56.205Z,76.09
2023-06-16T01:00:27.064Z,75.92
2023-06-16T01:02:58.111Z,76.32
2023-06-16T01:05:28.457Z,76.27
2023-06-16T01:08:12.550Z,76.78
2023-06-16T01:10:55.126Z,75.88
2023-06-16T01:13:33.467Z,76.29
2023-06-16T01:16:05.326Z,76.02
2023-06-16T01:18:35.279Z,75.80
2023-06-16T01:21:17.603Z,76.29
2023-06-16T01:24:04.308Z,76.92
2023-06-16T01:26:33.898Z,77.56
2023-06-16T01:29:06.875Z,77.74
2023-06-16T01:31:37.566Z,77.31
2023-06-16T01:34:09.961Z,77.18
2023-06-16T01:36:41.939Z,75.82
2023-06-16T01:39:12.661Z,75.72
2023-06-16T01:41:41.894Z,76.19
2023-06-16T01:44:11.094Z,76.77
2023-06-16T01:46:40.298Z,76.08
2023-06-16T01:49:09.650Z,76.17
2023-06-16T01:51:38.526Z,76.30
2023-06-16T01:54:08.613Z,76.03
2023-06-16T01:56:38.329Z,76.41
2023-06-16T01:59:06.894Z,77.52
2023-06-16T02:01:42.646Z,77.88
2023-06-16T02:04:16.827Z,78.36
2023-06-16T02:06:49.854Z,78.76
2023-06-16T02:09:24.491Z,79.08
2023-06-16T02:11:55.535Z,78.90
2023-06-16T02:14:24.187Z,79.42
2023-06-16T02:16:53.600Z,78.93
2023-06-16T02:19:22.323Z,78.82
2023-06-16T02:21:50.579Z,78.21
2023-06-16T02:24:20.077Z,78.61
2023-06-16T02:26:50.356Z,79.39
2023-06-16T02:29:21.706Z,78.99
2023-06-16T02:31:51.107Z,78.74
2023-06-16T02:34:20.066Z,79.84
2023-06-16T02:36:51.496Z,79.64
2023-06-16T02:39:22.934Z,79.16
2023-06-16T02:41:51.484Z,78.66
2023-06-16T02:44:22.181Z,79.01
2023-06-16T02:46:50.498Z,78.77
2023-06-16T02:49:20.305Z,79.08
2023-06-16T02:51:48.700Z,78.86
2023-06-16T02:54:17.002Z,79.03
2023-06-16T02:56:45.373Z,78.06
2023-06-16T02:59:14.132Z,79.20
2023-06-16T03:01:43.777Z,79.59
2023-06-16T03:04:26.989Z,80.04
2023-06-16T03:06:59.817Z,80.09
2023-06-16T03:09:33.638Z,80.38
2023-06-16T03:12:02.547Z,80.63
2023-06-16T03:14:34.141Z,80.46
2023-06-16T03:17:15.019Z,80.90
2023-06-16T03:19:44.492Z,80.29
2023-06-16T03:22:15.134Z,80.54
2023-06-16T03:24:45.980Z,81.23
2023-06-16T03:27:16.549Z,80.63
2023-06-16T03:29:52.145Z,81.58
2023-06-16T03:32:22.587Z,80.84
2023-06-16T03:34:51.194Z,81.89
2023-06-16T03:37:22.008Z,81.01
2023-06-16T03:39:50.334Z,81.58
2023-06-16T03:42:18.699Z,82.08
2023-06-16T03:44:48.463Z,81.70
2023-06-16T03:47:17.469Z,82.08
2023-06-16T03:49:47.293Z,81.30
2023-06-16T03:52:15.596Z,81.24
2023-06-16T03:54:43.908Z,80.64
2023-06-16T03:57:12.265Z,80.57
2023-06-16T03:59:41.331Z,80.48
2023-06-16T04:02:09.694Z,80.76
2023-06-16T04:04:48.596Z,81.54
2023-06-16T04:07:23.781Z,81.28
2023-06-16T04:09:54.038Z,81.85
2023-06-16T04:12:22.739Z,81.88
2023-06-16T04:14:51.031Z,82.03
2023-06-16T04:17:20.407Z,82.12
2023-06-16T04:19:50.504Z,82.52
2023-06-16T04:22:18.820Z,82.50
2023-06-16T04:24:51.964Z,81.70
2023-06-16T04:27:24.531Z,82.06
2023-06-16T04:29:54.118Z,81.67
2023-06-16T04:32:22.640Z,82.31
2023-06-16T04:34:55.648Z,81.74
2023-06-16T04:37:25.155Z,81.91
2023-06-16T04:39:53.385Z,82.01
2023-06-16T04:42:24.644Z,81.74
2023-06-16T04:44:53.453Z,81.68
2023-06-16T04:47:23.677Z,81.22
2023-06-16T04:49:53.938Z,80.32
2023-06-16T04:52:22.827Z,80.37
2023-06-16T04:54:51.158Z,80.28
2023-06-16T04:57:19.521Z,80.24
2023-06-16T04:59:47.944Z,81.74
2023-06-16T05:02:16.643Z,81.74
2023-06-16T05:04:45.233Z,82.53
2023-06-16T05:07:17.225Z,81.78
2023-06-16T05:09:49.319Z,81.75
2023-06-16T05:12:17.601Z,81.18
2023-06-16T05:14:46.607Z,81.03
2023-06-16T05:17:15.626Z,80.44
2023-06-16T05:19:44.431Z,80.16
2023-06-16T05:22:12.791Z,81.29
2023-06-16T05:24:42.944Z,80.39
2023-06-16T05:27:11.664Z,79.75
2023-06-16T05:29:39.970Z,78.59
2023-06-16T05:32:08.758Z,77.26
2023-06-16T05:34:37.541Z,76.52
2023-06-16T05:37:07.499Z,74.77
2023-06-16T05:39:36.251Z,74.95
2023-06-16T05:42:06.860Z,74.35
2023-06-16T05:44:35.163Z,74.13
2023-06-16T05:47:03.719Z,74.95
2023-06-16T05:49:32.036Z,74.00
2023-06-16T05:52:03.002Z,74.83
2023-06-16T05:54:31.348Z,74.20
2023-06-16T05:57:01.377Z,74.20
2023-06-16T05:59:32.167Z,74.02
2023-06-16T06:02:00.507Z,72.73
2023-06-16T06:04:54.787Z,73.61
2023-06-16T06:07:24.500Z,73.10
2023-06-16T06:09:53.014Z,72.49
2023-06-16T06:12:22.265Z,71.99
2023-06-16T06:14:52.087Z,72.27
2023-06-16T06:17:21.006Z,71.60
2023-06-16T06:19:50.802Z,70.75
2023-06-16T06:22:19.126Z,71.12
2023-06-16T06:24:48.619Z,69.69
2023-06-16T06:27:18.036Z,69.86
2023-06-16T06:29:46.342Z,69.47
2023-06-16T06:32:16.175Z,69.06
2023-06-16T06:34:44.447Z,68.87
2023-06-16T06:37:17.465Z,68.19
2023-06-16T06:39:46.603Z,67.41
2023-06-16T06:42:16.275Z,66.38
2023-06-16T06:44:57.272Z,65.21
2023-06-16T06:47:27.871Z,65.55
2023-06-16T06:50:03.370Z,66.06
2023-06-16T06:52:31.702Z,61.91
2023-06-16T06:54:59.949Z,61.14
2023-06-16T06:57:28.247Z,61.55
2023-06-16T06:59:56.484Z,61.36
2023-06-16T07:02:25.496Z,61.98
2023-06-16T07:04:55.542Z,61.70
2023-06-16T07:07:23.775Z,61.29
2023-06-16T07:09:52.100Z,61.75
2023-06-16T07:12:20.394Z,61.31
2023-06-16T07:14:50.382Z,61.74
2023-06-16T07:17:21.211Z,60.30
2023-06-16T07:19:49.448Z,59.25
2023-06-16T07:22:20.197Z,58.95
2023-06-16T07:24:48.411Z,58.54
2023-06-16T07:27:16.726Z,56.74
2023-06-16T07:29:44.952Z,56.48
2023-06-16T07:32:13.163Z,56.66
2023-06-16T07:34:42.921Z,57.12
2023-06-16T07:37:11.233Z,54.96
2023-06-16T07:39:41.100Z,54.78
2023-06-16T07:42:09.691Z,54.01
2023-06-16T07:44:37.999Z,54.21
2023-06-16T07:47:09.668Z,53.56
2023-06-16T07:49:39.485Z,53.67
2023-06-16T07:52:10.664Z,53.63
2023-06-16T07:54:42.035Z,53.28
2023-06-16T07:57:10.467Z,53.73
2023-06-16T07:59:38.747Z,52.89
2023-06-16T08:02:13.151Z,53.22
2023-06-16T08:07:33.607Z,52.24
2023-06-16T08:10:03.956Z,51.17
2023-06-16T08:12:33.353Z,49.89
2023-06-16T08:15:01.715Z,49.16
2023-06-16T08:17:30.067Z,49.64
2023-06-16T08:19:58.336Z,49.26
2023-06-16T08:22:26.813Z,49.25
2023-06-16T08:24:55.152Z,49.85
2023-06-16T08:27:26.185Z,49.56
2023-06-16T08:29:55.007Z,49.95
2023-06-16T08:32:23.925Z,50.32
2023-06-16T08:34:52.396Z,50.07
2023-06-16T08:37:28.760Z,49.60
2023-06-16T08:39:57.762Z,50.13
2023-06-16T08:42:27.647Z,49.65
2023-06-16T08:44:56.453Z,49.15
2023-06-16T08:47:25.187Z,46.42
2023-06-16T08:49:55.865Z,47.64
2023-06-16T08:52:38.825Z,47.21
2023-06-16T08:55:14.809Z,44.66
2023-06-16T08:57:49.171Z,45.86
2023-06-16T09:00:20.059Z,45.71
2023-06-16T09:02:51.695Z,45.11
2023-06-16T09:05:21.841Z,46.41
2023-06-16T09:07:52.338Z,45.25
2023-06-16T09:10:21.580Z,45.92
2023-06-16T09:12:55.369Z,46.47
2023-06-16T09:15:25.659Z,45.09
2023-06-16T09:17:54.066Z,45.93
2023-06-16T09:20:25.008Z,45.50
2023-06-16T09:23:00.698Z,44.55
2023-06-16T09:25:33.433Z,45.02
2023-06-16T09:28:09.206Z,44.12
2023-06-16T09:30:40.204Z,44.49
2023-06-16T09:33:12.400Z,45.26
2023-06-16T09:35:44.332Z,43.75
2023-06-16T09:38:13.069Z,44.19
2023-06-16T09:40:41.570Z,44.05
2023-06-16T09:43:12.723Z,44.20
2023-06-16T09:45:41.076Z,43.72
2023-06-16T09:48:13.634Z,43.32
2023-06-16T09:50:42.691Z,44.23
2023-06-16T09:53:11.910Z,44.47
2023-06-16T09:55:42.470Z,44.50
2023-06-16T09:58:12.170Z,43.85
2023-06-16T10:00:40.658Z,43.37
2023-06-16T10:03:11.204Z,43.66
2023-06-16T10:05:42.476Z,43.00
2023-06-16T10:08:13.606Z,43.97
2023-06-16T10:10:45.197Z,43.77
2023-06-16T10:13:17.159Z,44.84
2023-06-16T10:15:47.940Z,44.61
2023-06-16T10:18:19.031Z,44.23
2023-06-16T10:20:48.418Z,44.34
2023-06-16T10:23:17.394Z,44.53
2023-06-16T10:25:46.996Z,45.20
2023-06-16T10:28:17.193Z,44.46
2023-06-16T10:30:46.143Z,45.62
2023-06-16T10:33:19.370Z,44.85
2023-06-16T10:36:11.583Z,43.85
2023-06-16T10:38:43.858Z,45.10
2023-06-16T10:41:16.243Z,44.49
2023-06-16T10:43:46.260Z,43.75
2023-06-16T10:46:15.985Z,44.33
2023-06-16T10:49:13.295Z,44.01
2023-06-16T10:51:50.802Z,44.04
2023-06-16T10:54:37.413Z,44.24
2023-06-16T10:57:14.720Z,45.27
2023-06-16T10:59:59.070Z,44.35
2023-06-16T11:02:29.155Z,42.77
2023-06-16T11:05:15.107Z,42.69
2023-06-16T11:07:44.527Z,43.07
2023-06-16T11:10:18.654Z,43.51
2023-06-16T11:12:47.551Z,44.21
2023-06-16T11:15:17.294Z,44.00
2023-06-16T11:17:46.099Z,43.39
2023-06-16T11:20:15.581Z,44.15
2023-06-16T11:22:44.976Z,44.48
2023-06-16T11:25:14.273Z,44.65
2023-06-16T11:27:42.728Z,45.61
2023-06-16T11:30:13.085Z,45.47
2023-06-16T11:32:43.712Z,45.34
2023-06-16T11:35:12.421Z,45.10
2023-06-16T11:37:50.126Z,45.19
2023-06-16T11:40:22.407Z,46.17
2023-06-16T11:42:59.026Z,45.29
2023-06-16T11:45:29.755Z,45.05
2023-06-16T11:48:02.089Z,45.37
2023-06-16T11:50:30.740Z,45.45
2023-06-16T11:52:59.790Z,45.31
2023-06-16T11:55:29.970Z,45.54
2023-06-16T11:57:59.850Z,45.58
2023-06-16T12:00:29.055Z,45.36
2023-06-16T12:02:59.087Z,45.48
2023-06-16T12:05:29.587Z,45.89
2023-06-16T12:07:58.093Z,45.76
2023-06-16T12:10:27.445Z,45.13
2023-06-16T12:12:56.371Z,45.76
2023-06-16T12:15:25.550Z,45.50
2023-06-16T12:17:58.968Z,45.62
2023-06-16T12:20:27.485Z,46.29
2023-06-16T12:22:58.813Z,45.92
2023-06-16T12:25:28.266Z,46.33
2023-06-16T12:28:00.214Z,43.97
2023-06-16T12:30:37.782Z,44.56
2023-06-16T12:33:11.364Z,44.02
2023-06-16T12:35:39.901Z,44.39
2023-06-16T12:38:08.279Z,44.75
2023-06-16T12:40:37.066Z,45.32
2023-06-16T12:43:24.911Z,45.26
2023-06-16T12:45:53.783Z,44.98
2023-06-16T12:48:23.583Z,45.12
2023-06-16T12:50:51.988Z,45.19
2023-06-16T12:53:20.285Z,45.63
2023-06-16T12:55:48.553Z,44.83
2023-06-16T12:58:16.813Z,45.07
2023-06-16T13:00:45.096Z,46.84
2023-06-16T13:03:15.709Z,45.17
2023-06-16T13:05:45.824Z,45.72
2023-06-16T13:08:14.467Z,46.10
2023-06-16T13:10:42.671Z,46.51
2023-06-16T13:13:10.945Z,46.42
2023-06-16T13:15:39.245Z,46.71
2023-06-16T13:18:08.451Z,47.61
2023-06-16T13:20:40.542Z,47.80
2023-06-16T13:23:10.188Z,47.72
2023-06-16T13:25:38.453Z,47.59
2023-06-16T13:28:07.176Z,47.04
2023-06-16T13:30:36.064Z,47.72
2023-06-16T13:33:05.000Z,44.52
2023-06-16T13:35:33.313Z,44.14
2023-06-16T13:38:01.676Z,44.15
2023-06-16T13:40:31.311Z,43.26
2023-06-16T13:43:00.995Z,43.63
2023-06-16T13:45:34.857Z,42.84
2023-06-16T13:48:03.146Z,42.97
2023-06-16T13:50:31.446Z,43.87
2023-06-16T13:52:59.723Z,42.46
2023-06-16T13:55:28.041Z,42.09
2023-06-16T13:57:58.224Z,41.26
2023-06-16T14:00:26.519Z,41.91
2023-06-16T14:02:56.151Z,39.88
2023-06-16T14:05:24.923Z,40.60
2023-06-16T14:07:53.521Z,39.61
2023-06-16T14:10:22.169Z,39.42
2023-06-16T14:12:50.596Z,40.53
2023-06-16T14:15:20.729Z,40.87
2023-06-16T14:17:49.673Z,40.14
2023-06-16T14:20:18.909Z,41.07
2023-06-16T14:22:47.955Z,40.83
2023-06-16T14:25:16.596Z,40.45
2023-06-16T14:27:45.706Z,41.56
2023-06-16T14:30:14.747Z,42.01
2023-06-16T14:32:44.435Z,42.67
2023-06-16T14:35:12.974Z,43.54
2023-06-16T14:37:41.223Z,43.07
2023-06-16T14:40:10.887Z,42.49
2023-06-16T14:42:39.415Z,42.15
2023-06-16T14:45:10.619Z,42.70
2023-06-16T14:47:39.485Z,42.04
2023-06-16T14:50:11.005Z,42.14
2023-06-16T14:52:39.300Z,42.69
2023-06-16T14:55:08.406Z,42.34
2023-06-16T14:57:36.761Z,42.73
2023-06-16T15:00:07.131Z,43.00
2023-06-16T15:02:35.926Z,42.71
2023-06-16T15:05:04.523Z,42.91
2023-06-16T15:07:34.252Z,43.65
2023-06-16T15:10:02.514Z,44.01
2023-06-16T15:12:30.982Z,44.20
2023-06-16T15:14:59.272Z,43.77
2023-06-16T15:17:27.506Z,43.34
2023-06-16T15:19:55.852Z,43.34
2023-06-16T15:22:24.104Z,44.29
2023-06-16T15:24:53.774Z,45.58
2023-06-16T15:27:21.997Z,46.42
2023-06-16T15:29:50.238Z,46.65
2023-06-16T15:32:18.550Z,47.61
2023-06-16T15:34:46.808Z,47.08
2023-06-16T15:37:15.169Z,47.21
2023-06-16T15:39:43.395Z,47.32
2023-06-16T15:42:13.155Z,47.00
2023-06-16T15:44:42.038Z,46.35
2023-06-16T15:47:10.464Z,47.15
2023-06-16T15:49:38.738Z,46.85
2023-06-16T15:52:08.774Z,47.35
2023-06-16T15:54:37.024Z,46.96
2023-06-16T15:57:08.485Z,47.41
2023-06-16T15:59:38.990Z,47.17
2023-06-16T16:02:09.187Z,46.91
2023-06-16T16:04:43.639Z,46.95
2023-06-16T16:07:12.436Z,47.42
2023-06-16T16:09:40.835Z,46.55
2023-06-16T16:12:11.592Z,46.05
2023-06-16T16:14:41.676Z,46.18
2023-06-16T16:17:10.029Z,46.00
2023-06-16T16:19:38.307Z,46.41
2023-06-16T16:22:07.940Z,46.22
2023-06-16T16:24:36.282Z,46.85
2023-06-16T16:27:07.025Z,46.78
2023-06-16T16:29:40.769Z,46.58
2023-06-16T16:32:09.539Z,46.32
2023-06-16T16:34:37.883Z,45.91
2023-06-16T16:37:07.000Z,46.15
2023-06-16T16:39:35.784Z,46.47
2023-06-16T16:42:04.607Z,47.09
2023-06-16T16:44:33.097Z,47.49
2023-06-16T16:47:04.315Z,48.68
2023-06-16T16:49:32.775Z,48.78
2023-06-16T16:52:01.651Z,48.89
2023-06-16T16:54:29.896Z,48.33
2023-06-16T16:56:58.128Z,48.30
2023-06-16T16:59:27.106Z,48.37
2023-06-16T17:01:55.500Z,48.61
2023-06-16T17:04:25.295Z,48.66
2023-06-16T17:06:54.270Z,48.82
2023-06-16T17:09:22.544Z,48.18
2023-06-16T17:11:50.878Z,48.93
2023-06-16T17:14:19.016Z,48.57
2023-06-16T17:16:47.270Z,48.98
2023-06-16T17:19:15.444Z,48.64
2023-06-16T17:21:45.048Z,48.53
2023-06-16T17:24:13.378Z,48.46
2023-06-16T17:26:41.996Z,47.35
2023-06-16T17:29:10.297Z,46.87
2023-06-16T17:31:38.636Z,47.00
2023-06-16T17:34:06.915Z,47.35
2023-06-16T17:36:35.199Z,47.57
2023-06-16T17:39:05.293Z,48.33
2023-06-16T17:41:36.130Z,48.80
2023-06-16T17:44:05.569Z,48.71
2023-06-16T17:46:36.177Z,48.34
2023-06-16T17:49:05.636Z,48.24
2023-06-16T17:54:06.462Z,49.13
2023-06-16T17:59:03.278Z,49.32
2023-06-16T18:01:32.147Z,49.13
2023-06-16T18:06:55.643Z,49.94
2023-06-16T18:09:25.227Z,50.13
2023-06-16T18:11:53.602Z,50.43
2023-06-16T18:14:21.847Z,50.52
2023-06-16T18:16:50.150Z,50.75
2023-06-16T18:19:18.468Z,50.45
2023-06-16T18:21:46.875Z,50.63
2023-06-16T18:24:15.313Z,50.72
2023-06-16T18:26:45.110Z,50.28
2023-06-16T18:29:13.439Z,50.78
2023-06-16T18:31:42.534Z,51.23
2023-06-16T18:34:11.367Z,52.31
2023-06-16T18:36:42.297Z,53.92
2023-06-16T18:39:14.331Z,54.08
2023-06-16T18:41:48.371Z,52.64
2023-06-16T18:44:18.118Z,52.81
2023-06-16T18:46:46.938Z,53.79
2023-06-16T18:49:15.224Z,54.19
2023-06-16T18:51:43.526Z,55.98
2023-06-16T18:54:11.875Z,56.16
2023-06-16T18:56:40.470Z,56.41
2023-06-16T18:59:10.010Z,56.77
2023-06-16T19:01:39.234Z,56.79
2023-06-16T19:04:07.715Z,56.86
2023-06-16T19:06:38.072Z,57.62
2023-06-16T19:09:06.362Z,58.75
2023-06-16T19:11:34.637Z,59.29
2023-06-16T19:14:02.892Z,60.41
2023-06-16T19:16:32.697Z,60.70
2023-06-16T19:19:01.496Z,60.95
2023-06-16T19:21:29.764Z,61.90
2023-06-16T19:23:58.014Z,61.98
2023-06-16T19:26:26.278Z,62.58
2023-06-16T19:28:54.605Z,62.55
2023-06-16T19:31:24.640Z,62.35
2023-06-16T19:33:55.234Z,61.57
2023-06-16T19:36:23.815Z,61.66
2023-06-16T19:38:53.606Z,61.59
2023-06-16T19:41:25.425Z,60.96
2023-06-16T19:43:53.662Z,61.50
2023-06-16T19:46:22.193Z,61.99
2023-06-16T19:48:51.781Z,62.18
2023-06-16T19:51:21.537Z,62.04
2023-06-16T19:53:49.765Z,61.76
2023-06-16T19:56:18.295Z,62.35
2023-06-16T19:58:46.572Z,62.71
2023-06-16T20:01:40.824Z,63.73
2023-06-16T20:04:23.472Z,64.63
2023-06-16T20:06:57.080Z,64.81
2023-06-16T20:09:26.155Z,65.06
2023-06-16T20:11:55.211Z,65.93
2023-06-16T20:14:23.579Z,66.79
2023-06-16T20:16:51.956Z,67.25
2023-06-16T20:19:21.814Z,67.40
2023-06-16T20:21:50.239Z,66.84
2023-06-16T20:24:19.959Z,67.33
2023-06-16T20:26:48.587Z,68.18
2023-06-16T20:29:16.859Z,68.05
2023-06-16T20:31:45.093Z,67.24
2023-06-16T20:34:13.341Z,65.19
2023-06-16T20:36:46.062Z,65.29
2023-06-16T20:39:14.943Z,65.19
2023-06-16T20:41:44.598Z,65.84
2023-06-16T20:44:13.794Z,66.24
2023-06-16T20:46:43.699Z,65.51
2023-06-16T20:49:12.126Z,65.25
2023-06-16T20:51:41.326Z,66.33
2023-06-16T20:54:09.617Z,67.17
2023-06-16T20:56:37.875Z,67.41
2023-06-16T20:59:08.596Z,68.02
2023-06-16T21:01:41.198Z,68.17
2023-06-16T21:04:12.655Z,68.46
2023-06-16T21:06:41.709Z,68.84
2023-06-16T21:09:10.753Z,69.15
2023-06-16T21:11:40.099Z,69.52
2023-06-16T21:14:10.723Z,69.50
2023-06-16T21:16:39.981Z,69.28
2023-06-16T21:19:08.283Z,70.72
2023-06-16T21:21:36.535Z,69.97
2023-06-16T21:24:07.126Z,70.63
2023-06-16T21:26:36.111Z,70.66
2023-06-16T21:29:04.528Z,70.92
2023-06-16T21:31:34.091Z,71.40
2023-06-16T21:34:02.402Z,71.66
2023-06-16T21:36:30.670Z,71.20
2023-06-16T21:38:59.459Z,71.50
2023-06-16T21:41:28.094Z,71.22
2023-06-16T21:43:56.348Z,71.46
2023-06-16T21:46:25.074Z,71.71
2023-06-16T21:48:54.619Z,72.50
2023-06-16T21:51:23.118Z,72.70
2023-06-16T21:53:51.404Z,72.96
2023-06-16T21:56:20.261Z,72.76
2023-06-16T21:58:48.502Z,74.00
2023-06-16T22:01:16.817Z,72.92
2023-06-16T22:04:12.278Z,73.08
2023-06-16T22:06:42.696Z,72.66
2023-06-16T22:09:11.512Z,73.58
2023-06-16T22:11:40.063Z,73.36
2023-06-16T22:14:08.915Z,73.39
2023-06-16T22:16:37.445Z,72.99
2023-06-16T22:19:05.768Z,72.47
2023-06-16T22:21:35.432Z,71.95
2023-06-16T22:24:03.802Z,72.34
2023-06-16T22:26:33.688Z,72.19
2023-06-16T22:29:01.978Z,71.86
2023-06-16T22:31:30.246Z,71.82
2023-06-16T22:33:58.494Z,72.75
2023-06-16T22:36:26.712Z,72.92
2023-06-16T22:38:56.549Z,73.13
2023-06-16T22:41:24.817Z,72.97
2023-06-16T22:43:54.140Z,73.44
2023-06-16T22:46:22.675Z,73.05
2023-06-16T22:48:52.061Z,72.97
2023-06-16T22:51:20.452Z,73.65
2023-06-16T22:53:48.770Z,73.26
2023-06-16T22:56:18.883Z,73.50
2023-06-16T22:58:47.157Z,74.24
2023-06-16T23:01:15.984Z,73.86
2023-06-16T23:03:44.344Z,74.66
2023-06-16T23:06:12.613Z,74.03
2023-06-16T23:08:40.998Z,74.04
2023-06-16T23:11:09.226Z,74.17
2023-06-16T23:13:38.855Z,74.63
2023-06-16T23:16:07.862Z,74.82
2023-06-16T23:18:36.634Z,74.94
2023-06-16T23:21:05.083Z,75.01
2023-06-16T23:23:33.311Z,75.09
2023-06-16T23:26:02.860Z,75.06
2023-06-16T23:28:31.130Z,74.46
2023-06-16T23:31:02.260Z,74.51
2023-06-16T23:33:30.787Z,73.53
2023-06-16T23:35:59.402Z,73.86
2023-06-16T23:38:27.636Z,74.14
2023-06-16T23:40:56.018Z,73.84
2023-06-16T23:43:24.516Z,73.83
2023-06-16T23:45:54.011Z,73.55
2023-06-16T23:48:23.876Z,74.00
2023-06-16T23:50:52.154Z,74.10
2023-06-16T23:53:21.887Z,74.70
2023-06-16T23:55:50.262Z,75.17
2023-06-16T23:58:18.475Z,75.66
